sensor_id;sensor_type;location;lat;lon;timestamp;P1;durP1;ratioP1;P2;durP2;ratioP2
42600;SDS011;28229;48.856;9.088;2023-03-01T00:00:12;16.93;;;11.87;;
42600;SDS011;28229;48.856;9.088;2023-03-01T00:02:41;20.57;;;12.87;;
42600;SDS011;28229;48.856;9.088;2023-03-01T00:05:07;17.97;;;12.17;;
42600;SDS011;28229;48.856;9.088;2023-03-01T00:07:34;20.87;;;12.97;;
42600;SDS011;28229;48.856;9.088;2023-03-01T00:10:00;19.17;;;12.33;;
42600;SDS011;28229;48.856;9.088;2023-03-01T00:12:26;18.73;;;11.93;;
42600;SDS011;28229;48.856;9.088;2023-03-01T00:14:53;20.60;;;12.43;;
42600;SDS011;28229;48.856;9.088;2023-03-01T00:17:19;18.27;;;11.47;;
42600;SDS011;28229;48.856;9.088;2023-03-01T00:19:45;20.97;;;12.67;;
42600;SDS011;28229;48.856;9.088;2023-03-01T00:22:11;19.37;;;11.87;;
42600;SDS011;28229;48.856;9.088;2023-03-01T00:24:38;19.10;;;12.53;;
42600;SDS011;28229;48.856;9.088;2023-03-01T00:27:11;18.93;;;12.50;;
42600;SDS011;28229;48.856;9.088;2023-03-01T00:29:37;18.53;;;12.03;;
42600;SDS011;28229;48.856;9.088;2023-03-01T00:32:04;20.70;;;12.57;;
42600;SDS011;28229;48.856;9.088;2023-03-01T00:34:30;20.50;;;12.67;;
42600;SDS011;28229;48.856;9.088;2023-03-01T00:36:56;19.53;;;12.67;;
42600;SDS011;28229;48.856;9.088;2023-03-01T00:39:31;21.63;;;12.90;;
42600;SDS011;28229;48.856;9.088;2023-03-01T00:41:59;17.50;;;11.97;;
42600;SDS011;28229;48.856;9.088;2023-03-01T00:44:25;19.63;;;12.47;;
42600;SDS011;28229;48.856;9.088;2023-03-01T00:46:51;17.57;;;11.77;;
42600;SDS011;28229;48.856;9.088;2023-03-01T00:49:17;18.77;;;11.27;;
42600;SDS011;28229;48.856;9.088;2023-03-01T00:51:43;18.37;;;12.07;;
42600;SDS011;28229;48.856;9.088;2023-03-01T00:54:10;17.77;;;11.17;;
42600;SDS011;28229;48.856;9.088;2023-03-01T00:56:36;20.30;;;12.60;;
42600;SDS011;28229;48.856;9.088;2023-03-01T00:59:02;20.47;;;12.87;;
42600;SDS011;28229;48.856;9.088;2023-03-01T01:01:30;21.43;;;12.23;;
42600;SDS011;28229;48.856;9.088;2023-03-01T01:03:58;18.63;;;11.80;;
42600;SDS011;28229;48.856;9.088;2023-03-01T01:06:30;17.07;;;11.53;;
42600;SDS011;28229;48.856;9.088;2023-03-01T01:09:12;19.70;;;12.03;;
42600;SDS011;28229;48.856;9.088;2023-03-01T01:11:46;18.70;;;11.90;;
42600;SDS011;28229;48.856;9.088;2023-03-01T01:14:14;17.40;;;11.33;;
42600;SDS011;28229;48.856;9.088;2023-03-01T01:16:41;19.63;;;11.70;;
42600;SDS011;28229;48.856;9.088;2023-03-01T01:19:07;20.07;;;12.47;;
42600;SDS011;28229;48.856;9.088;2023-03-01T01:21:33;17.70;;;11.73;;
42600;SDS011;28229;48.856;9.088;2023-03-01T01:23:59;19.47;;;11.97;;
42600;SDS011;28229;48.856;9.088;2023-03-01T01:26:28;17.47;;;12.17;;
42600;SDS011;28229;48.856;9.088;2023-03-01T01:28:55;18.30;;;12.17;;
42600;SDS011;28229;48.856;9.088;2023-03-01T01:31:22;17.93;;;11.73;;
42600;SDS011;28229;48.856;9.088;2023-03-01T01:33:49;21.03;;;12.90;;
42600;SDS011;28229;48.856;9.088;2023-03-01T01:36:16;22.23;;;12.60;;
42600;SDS011;28229;48.856;9.088;2023-03-01T01:38:43;18.93;;;12.23;;
42600;SDS011;28229;48.856;9.088;2023-03-01T01:41:10;19.03;;;12.17;;
42600;SDS011;28229;48.856;9.088;2023-03-01T01:43:39;19.47;;;12.47;;
42600;SDS011;28229;48.856;9.088;2023-03-01T01:48:48;21.53;;;13.40;;
42600;SDS011;28229;48.856;9.088;2023-03-01T01:51:25;19.03;;;11.83;;
42600;SDS011;28229;48.856;9.088;2023-03-01T01:54:08;20.20;;;12.33;;
42600;SDS011;28229;48.856;9.088;2023-03-01T01:56:40;19.60;;;11.90;;
42600;SDS011;28229;48.856;9.088;2023-03-01T01:59:10;19.83;;;12.07;;
42600;SDS011;28229;48.856;9.088;2023-03-01T02:01:37;20.20;;;12.43;;
42600;SDS011;28229;48.856;9.088;2023-03-01T02:04:04;19.10;;;12.60;;
42600;SDS011;28229;48.856;9.088;2023-03-01T02:06:33;20.53;;;12.47;;
42600;SDS011;28229;48.856;9.088;2023-03-01T02:09:08;21.70;;;13.20;;
42600;SDS011;28229;48.856;9.088;2023-03-01T02:11:38;18.67;;;11.13;;
42600;SDS011;28229;48.856;9.088;2023-03-01T02:14:04;20.87;;;12.33;;
42600;SDS011;28229;48.856;9.088;2023-03-01T02:16:31;19.27;;;12.27;;
42600;SDS011;28229;48.856;9.088;2023-03-01T02:18:57;17.37;;;11.77;;
42600;SDS011;28229;48.856;9.088;2023-03-01T02:24:40;17.63;;;12.10;;
42600;SDS011;28229;48.856;9.088;2023-03-01T02:27:22;19.17;;;12.23;;
42600;SDS011;28229;48.856;9.088;2023-03-01T02:29:54;19.37;;;12.20;;
42600;SDS011;28229;48.856;9.088;2023-03-01T02:32:20;20.03;;;13.10;;
42600;SDS011;28229;48.856;9.088;2023-03-01T02:34:54;18.60;;;11.97;;
42600;SDS011;28229;48.856;9.088;2023-03-01T02:37:28;17.23;;;11.60;;
42600;SDS011;28229;48.856;9.088;2023-03-01T02:39:56;18.60;;;11.77;;
42600;SDS011;28229;48.856;9.088;2023-03-01T02:42:46;18.47;;;11.40;;
42600;SDS011;28229;48.856;9.088;2023-03-01T02:45:17;20.27;;;12.23;;
42600;SDS011;28229;48.856;9.088;2023-03-01T02:47:43;18.87;;;12.40;;
42600;SDS011;28229;48.856;9.088;2023-03-01T02:50:22;20.97;;;12.40;;
42600;SDS011;28229;48.856;9.088;2023-03-01T02:53:16;18.13;;;12.60;;
42600;SDS011;28229;48.856;9.088;2023-03-01T02:55:49;19.13;;;11.93;;
42600;SDS011;28229;48.856;9.088;2023-03-01T02:58:16;19.40;;;13.03;;
42600;SDS011;28229;48.856;9.088;2023-03-01T03:00:42;18.73;;;12.03;;
42600;SDS011;28229;48.856;9.088;2023-03-01T03:03:13;18.83;;;12.50;;
42600;SDS011;28229;48.856;9.088;2023-03-01T03:05:41;21.83;;;12.40;;
42600;SDS011;28229;48.856;9.088;2023-03-01T03:08:08;17.70;;;11.87;;
42600;SDS011;28229;48.856;9.088;2023-03-01T03:10:37;22.00;;;13.00;;
42600;SDS011;28229;48.856;9.088;2023-03-01T03:13:07;20.10;;;13.10;;
42600;SDS011;28229;48.856;9.088;2023-03-01T03:15:37;19.47;;;12.43;;
42600;SDS011;28229;48.856;9.088;2023-03-01T03:18:05;22.33;;;13.00;;
42600;SDS011;28229;48.856;9.088;2023-03-01T03:20:33;20.67;;;12.77;;
42600;SDS011;28229;48.856;9.088;2023-03-01T03:22:59;17.60;;;11.93;;
42600;SDS011;28229;48.856;9.088;2023-03-01T03:25:26;19.57;;;12.90;;
42600;SDS011;28229;48.856;9.088;2023-03-01T03:27:54;19.43;;;12.30;;
42600;SDS011;28229;48.856;9.088;2023-03-01T03:30:26;18.80;;;12.53;;
42600;SDS011;28229;48.856;9.088;2023-03-01T03:32:55;20.53;;;12.20;;
42600;SDS011;28229;48.856;9.088;2023-03-01T03:35:31;21.43;;;13.10;;
42600;SDS011;28229;48.856;9.088;2023-03-01T03:38:00;19.43;;;12.77;;
42600;SDS011;28229;48.856;9.088;2023-03-01T03:40:38;18.70;;;12.87;;
42600;SDS011;28229;48.856;9.088;2023-03-01T03:43:06;20.60;;;12.73;;
42600;SDS011;28229;48.856;9.088;2023-03-01T03:45:36;21.70;;;12.93;;
42600;SDS011;28229;48.856;9.088;2023-03-01T03:48:03;18.50;;;12.70;;
42600;SDS011;28229;48.856;9.088;2023-03-01T03:50:30;19.93;;;12.87;;
42600;SDS011;28229;48.856;9.088;2023-03-01T03:52:59;22.80;;;13.07;;
42600;SDS011;28229;48.856;9.088;2023-03-01T03:55:27;19.10;;;12.17;;
42600;SDS011;28229;48.856;9.088;2023-03-01T03:57:59;21.00;;;13.70;;
42600;SDS011;28229;48.856;9.088;2023-03-01T04:00:33;20.60;;;13.10;;
42600;SDS011;28229;48.856;9.088;2023-03-01T04:03:01;19.37;;;13.27;;
42600;SDS011;28229;48.856;9.088;2023-03-01T04:05:28;21.17;;;13.43;;
42600;SDS011;28229;48.856;9.088;2023-03-01T04:07:55;18.93;;;12.13;;
42600;SDS011;28229;48.856;9.088;2023-03-01T04:10:32;18.07;;;12.60;;
42600;SDS011;28229;48.856;9.088;2023-03-01T04:13:00;20.00;;;12.60;;
42600;SDS011;28229;48.856;9.088;2023-03-01T04:15:26;21.87;;;13.63;;
42600;SDS011;28229;48.856;9.088;2023-03-01T04:17:53;18.53;;;12.03;;
42600;SDS011;28229;48.856;9.088;2023-03-01T04:20:22;20.57;;;13.50;;
42600;SDS011;28229;48.856;9.088;2023-03-01T04:25:24;19.07;;;11.90;;
42600;SDS011;28229;48.856;9.088;2023-03-01T04:27:51;19.97;;;13.23;;
42600;SDS011;28229;48.856;9.088;2023-03-01T04:30:18;19.83;;;12.97;;
42600;SDS011;28229;48.856;9.088;2023-03-01T04:32:44;19.77;;;12.57;;
42600;SDS011;28229;48.856;9.088;2023-03-01T04:35:10;20.43;;;13.13;;
42600;SDS011;28229;48.856;9.088;2023-03-01T04:37:36;21.87;;;13.20;;
42600;SDS011;28229;48.856;9.088;2023-03-01T04:40:03;20.23;;;13.63;;
42600;SDS011;28229;48.856;9.088;2023-03-01T04:42:42;18.77;;;13.03;;
42600;SDS011;28229;48.856;9.088;2023-03-01T04:45:08;19.97;;;13.13;;
42600;SDS011;28229;48.856;9.088;2023-03-01T04:47:42;19.80;;;12.50;;
42600;SDS011;28229;48.856;9.088;2023-03-01T04:50:13;20.70;;;12.93;;
42600;SDS011;28229;48.856;9.088;2023-03-01T04:52:43;20.60;;;13.33;;
42600;SDS011;28229;48.856;9.088;2023-03-01T04:55:09;18.97;;;12.87;;
42600;SDS011;28229;48.856;9.088;2023-03-01T04:57:36;20.07;;;14.00;;
42600;SDS011;28229;48.856;9.088;2023-03-01T05:00:03;21.73;;;13.10;;
42600;SDS011;28229;48.856;9.088;2023-03-01T05:02:55;20.17;;;13.10;;
42600;SDS011;28229;48.856;9.088;2023-03-01T05:05:24;19.37;;;13.27;;
42600;SDS011;28229;48.856;9.088;2023-03-01T05:07:57;20.07;;;13.53;;
42600;SDS011;28229;48.856;9.088;2023-03-01T05:10:26;20.70;;;13.50;;
42600;SDS011;28229;48.856;9.088;2023-03-01T05:12:57;20.50;;;12.70;;
42600;SDS011;28229;48.856;9.088;2023-03-01T05:15:25;21.93;;;12.93;;
42600;SDS011;28229;48.856;9.088;2023-03-01T05:17:58;19.87;;;13.53;;
42600;SDS011;28229;48.856;9.088;2023-03-01T05:20:26;21.00;;;13.53;;
42600;SDS011;28229;48.856;9.088;2023-03-01T05:22:58;19.00;;;13.07;;
42600;SDS011;28229;48.856;9.088;2023-03-01T05:25:25;20.57;;;12.80;;
42600;SDS011;28229;48.856;9.088;2023-03-01T05:27:52;19.73;;;13.60;;
42600;SDS011;28229;48.856;9.088;2023-03-01T05:30:18;19.77;;;13.63;;
42600;SDS011;28229;48.856;9.088;2023-03-01T05:32:48;18.13;;;12.57;;
42600;SDS011;28229;48.856;9.088;2023-03-01T05:35:16;19.83;;;13.43;;
42600;SDS011;28229;48.856;9.088;2023-03-01T05:37:44;20.97;;;13.23;;
42600;SDS011;28229;48.856;9.088;2023-03-01T05:40:14;18.33;;;12.93;;
42600;SDS011;28229;48.856;9.088;2023-03-01T05:42:43;20.73;;;13.73;;
42600;SDS011;28229;48.856;9.088;2023-03-01T05:45:18;21.90;;;13.97;;
42600;SDS011;28229;48.856;9.088;2023-03-01T05:47:44;21.03;;;13.60;;
42600;SDS011;28229;48.856;9.088;2023-03-01T05:50:32;20.57;;;13.60;;
42600;SDS011;28229;48.856;9.088;2023-03-01T05:53:02;19.93;;;13.53;;
42600;SDS011;28229;48.856;9.088;2023-03-01T05:55:34;21.07;;;14.10;;
42600;SDS011;28229;48.856;9.088;2023-03-01T05:58:01;21.63;;;13.27;;
42600;SDS011;28229;48.856;9.088;2023-03-01T06:00:31;22.77;;;14.30;;
42600;SDS011;28229;48.856;9.088;2023-03-01T06:02:59;23.90;;;14.60;;
42600;SDS011;28229;48.856;9.088;2023-03-01T06:05:26;19.00;;;12.90;;
42600;SDS011;28229;48.856;9.088;2023-03-01T06:07:52;22.27;;;14.17;;
42600;SDS011;28229;48.856;9.088;2023-03-01T06:10:19;20.70;;;13.67;;
42600;SDS011;28229;48.856;9.088;2023-03-01T06:13:01;23.97;;;14.77;;
42600;SDS011;28229;48.856;9.088;2023-03-01T06:15:27;28.77;;;17.63;;
42600;SDS011;28229;48.856;9.088;2023-03-01T06:17:54;22.97;;;15.23;;
42600;SDS011;28229;48.856;9.088;2023-03-01T06:20:23;22.83;;;15.43;;
42600;SDS011;28229;48.856;9.088;2023-03-01T06:22:51;22.30;;;14.50;;
42600;SDS011;28229;48.856;9.088;2023-03-01T06:25:19;23.53;;;14.47;;
42600;SDS011;28229;48.856;9.088;2023-03-01T06:27:47;21.03;;;13.87;;
42600;SDS011;28229;48.856;9.088;2023-03-01T06:30:15;21.47;;;13.63;;
42600;SDS011;28229;48.856;9.088;2023-03-01T06:32:42;19.93;;;13.30;;
42600;SDS011;28229;48.856;9.088;2023-03-01T06:35:10;21.33;;;13.83;;
42600;SDS011;28229;48.856;9.088;2023-03-01T06:37:38;19.63;;;13.50;;
42600;SDS011;28229;48.856;9.088;2023-03-01T06:40:05;22.27;;;14.00;;
42600;SDS011;28229;48.856;9.088;2023-03-01T06:42:37;23.13;;;14.80;;
42600;SDS011;28229;48.856;9.088;2023-03-01T06:45:06;21.70;;;14.30;;
42600;SDS011;28229;48.856;9.088;2023-03-01T06:47:33;20.87;;;14.13;;
42600;SDS011;28229;48.856;9.088;2023-03-01T06:49:59;22.57;;;14.70;;
42600;SDS011;28229;48.856;9.088;2023-03-01T06:52:26;22.73;;;14.77;;
42600;SDS011;28229;48.856;9.088;2023-03-01T06:54:53;24.23;;;14.47;;
42600;SDS011;28229;48.856;9.088;2023-03-01T06:57:19;23.37;;;14.73;;
42600;SDS011;28229;48.856;9.088;2023-03-01T06:59:46;22.63;;;14.87;;
42600;SDS011;28229;48.856;9.088;2023-03-01T07:02:13;23.07;;;14.93;;
42600;SDS011;28229;48.856;9.088;2023-03-01T07:04:41;23.60;;;15.33;;
42600;SDS011;28229;48.856;9.088;2023-03-01T07:07:08;24.97;;;15.73;;
42600;SDS011;28229;48.856;9.088;2023-03-01T07:09:34;26.50;;;16.70;;
42600;SDS011;28229;48.856;9.088;2023-03-01T07:12:00;26.23;;;15.90;;
42600;SDS011;28229;48.856;9.088;2023-03-01T07:14:27;24.90;;;15.17;;
42600;SDS011;28229;48.856;9.088;2023-03-01T07:16:53;23.67;;;15.83;;
42600;SDS011;28229;48.856;9.088;2023-03-01T07:19:20;24.43;;;15.03;;
42600;SDS011;28229;48.856;9.088;2023-03-01T07:21:47;25.43;;;15.23;;
42600;SDS011;28229;48.856;9.088;2023-03-01T07:24:13;26.33;;;15.80;;
42600;SDS011;28229;48.856;9.088;2023-03-01T07:26:40;23.70;;;15.23;;
42600;SDS011;28229;48.856;9.088;2023-03-01T07:29:07;23.37;;;14.93;;
42600;SDS011;28229;48.856;9.088;2023-03-01T07:31:35;22.10;;;14.77;;
42600;SDS011;28229;48.856;9.088;2023-03-01T07:34:02;24.50;;;15.60;;
42600;SDS011;28229;48.856;9.088;2023-03-01T07:36:28;21.03;;;14.67;;
42600;SDS011;28229;48.856;9.088;2023-03-01T07:38:55;24.73;;;16.23;;
42600;SDS011;28229;48.856;9.088;2023-03-01T07:41:21;21.63;;;14.67;;
42600;SDS011;28229;48.856;9.088;2023-03-01T07:43:49;26.87;;;17.00;;
42600;SDS011;28229;48.856;9.088;2023-03-01T07:46:16;25.80;;;16.10;;
42600;SDS011;28229;48.856;9.088;2023-03-01T07:48:44;24.50;;;15.50;;
42600;SDS011;28229;48.856;9.088;2023-03-01T07:51:25;27.33;;;16.80;;
42600;SDS011;28229;48.856;9.088;2023-03-01T07:53:52;26.43;;;15.93;;
42600;SDS011;28229;48.856;9.088;2023-03-01T07:56:34;21.93;;;14.70;;
42600;SDS011;28229;48.856;9.088;2023-03-01T07:59:08;22.90;;;14.43;;
42600;SDS011;28229;48.856;9.088;2023-03-01T08:01:37;24.17;;;15.80;;
42600;SDS011;28229;48.856;9.088;2023-03-01T08:04:07;23.23;;;14.73;;
42600;SDS011;28229;48.856;9.088;2023-03-01T08:06:36;21.40;;;14.77;;
42600;SDS011;28229;48.856;9.088;2023-03-01T08:09:03;22.40;;;16.10;;
42600;SDS011;28229;48.856;9.088;2023-03-01T08:11:29;22.30;;;15.20;;
42600;SDS011;28229;48.856;9.088;2023-03-01T08:13:55;23.70;;;14.43;;
42600;SDS011;28229;48.856;9.088;2023-03-01T08:16:22;27.53;;;17.97;;
42600;SDS011;28229;48.856;9.088;2023-03-01T08:18:48;22.23;;;16.40;;
42600;SDS011;28229;48.856;9.088;2023-03-01T08:21:15;26.23;;;16.63;;
42600;SDS011;28229;48.856;9.088;2023-03-01T08:23:43;23.60;;;16.07;;
42600;SDS011;28229;48.856;9.088;2023-03-01T08:28:43;26.37;;;19.30;;
42600;SDS011;28229;48.856;9.088;2023-03-01T08:31:16;26.00;;;15.77;;
42600;SDS011;28229;48.856;9.088;2023-03-01T08:34:01;23.20;;;16.67;;
42600;SDS011;28229;48.856;9.088;2023-03-01T08:36:31;23.20;;;16.00;;
42600;SDS011;28229;48.856;9.088;2023-03-01T08:38:59;23.77;;;15.67;;
42600;SDS011;28229;48.856;9.088;2023-03-01T08:41:25;22.23;;;16.20;;
42600;SDS011;28229;48.856;9.088;2023-03-01T08:43:52;23.83;;;15.87;;
42600;SDS011;28229;48.856;9.088;2023-03-01T08:46:34;21.60;;;15.13;;
42600;SDS011;28229;48.856;9.088;2023-03-01T08:49:36;23.57;;;15.83;;
42600;SDS011;28229;48.856;9.088;2023-03-01T08:51:55;24.20;;;15.80;;
42600;SDS011;28229;48.856;9.088;2023-03-01T08:54:24;23.10;;;15.23;;
42600;SDS011;28229;48.856;9.088;2023-03-01T08:56:51;22.50;;;15.43;;
42600;SDS011;28229;48.856;9.088;2023-03-01T08:59:17;23.07;;;15.50;;
42600;SDS011;28229;48.856;9.088;2023-03-01T09:01:44;21.07;;;15.10;;
42600;SDS011;28229;48.856;9.088;2023-03-01T09:04:10;23.33;;;15.90;;
42600;SDS011;28229;48.856;9.088;2023-03-01T09:06:40;20.43;;;14.93;;
42600;SDS011;28229;48.856;9.088;2023-03-01T09:09:12;22.10;;;14.67;;
42600;SDS011;28229;48.856;9.088;2023-03-01T09:11:41;21.80;;;14.73;;
42600;SDS011;28229;48.856;9.088;2023-03-01T09:14:07;22.27;;;15.47;;
42600;SDS011;28229;48.856;9.088;2023-03-01T09:16:33;22.43;;;15.87;;
42600;SDS011;28229;48.856;9.088;2023-03-01T09:19:07;20.83;;;15.10;;
42600;SDS011;28229;48.856;9.088;2023-03-01T09:21:34;23.50;;;15.37;;
42600;SDS011;28229;48.856;9.088;2023-03-01T09:24:00;23.63;;;16.03;;
42600;SDS011;28229;48.856;9.088;2023-03-01T09:26:28;21.77;;;15.00;;
42600;SDS011;28229;48.856;9.088;2023-03-01T09:28:55;20.20;;;14.67;;
42600;SDS011;28229;48.856;9.088;2023-03-01T09:31:22;21.93;;;15.30;;
42600;SDS011;28229;48.856;9.088;2023-03-01T09:33:51;21.77;;;14.10;;
42600;SDS011;28229;48.856;9.088;2023-03-01T09:36:20;23.07;;;15.83;;
42600;SDS011;28229;48.856;9.088;2023-03-01T09:38:48;21.40;;;15.30;;
42600;SDS011;28229;48.856;9.088;2023-03-01T09:43:50;22.23;;;15.20;;
42600;SDS011;28229;48.856;9.088;2023-03-01T09:46:22;20.23;;;14.57;;
42600;SDS011;28229;48.856;9.088;2023-03-01T09:48:51;21.63;;;15.77;;
42600;SDS011;28229;48.856;9.088;2023-03-01T09:51:31;19.20;;;14.00;;
42600;SDS011;28229;48.856;9.088;2023-03-01T09:54:01;22.00;;;15.53;;
42600;SDS011;28229;48.856;9.088;2023-03-01T09:56:41;22.33;;;15.90;;
42600;SDS011;28229;48.856;9.088;2023-03-01T10:02:13;20.53;;;15.40;;
42600;SDS011;28229;48.856;9.088;2023-03-01T10:04:50;22.57;;;15.70;;
42600;SDS011;28229;48.856;9.088;2023-03-01T10:09:44;20.63;;;14.90;;
42600;SDS011;28229;48.856;9.088;2023-03-01T10:12:22;19.73;;;14.90;;
42600;SDS011;28229;48.856;9.088;2023-03-01T10:14:55;20.97;;;15.20;;
42600;SDS011;28229;48.856;9.088;2023-03-01T10:17:48;23.17;;;16.60;;
42600;SDS011;28229;48.856;9.088;2023-03-01T10:20:33;22.67;;;14.63;;
42600;SDS011;28229;48.856;9.088;2023-03-01T10:23:09;25.23;;;16.33;;
42600;SDS011;28229;48.856;9.088;2023-03-01T10:25:42;23.37;;;15.30;;
42600;SDS011;28229;48.856;9.088;2023-03-01T10:30:46;21.40;;;14.63;;
42600;SDS011;28229;48.856;9.088;2023-03-01T10:33:18;19.23;;;14.33;;
42600;SDS011;28229;48.856;9.088;2023-03-01T10:35:50;20.57;;;14.97;;
42600;SDS011;28229;48.856;9.088;2023-03-01T10:38:17;20.00;;;14.27;;
42600;SDS011;28229;48.856;9.088;2023-03-01T10:43:23;17.33;;;14.00;;
42600;SDS011;28229;48.856;9.088;2023-03-01T10:45:51;19.93;;;14.87;;
42600;SDS011;28229;48.856;9.088;2023-03-01T10:50:46;19.43;;;14.27;;
42600;SDS011;28229;48.856;9.088;2023-03-01T10:53:24;18.00;;;14.53;;
42600;SDS011;28229;48.856;9.088;2023-03-01T10:56:07;17.73;;;14.23;;
42600;SDS011;28229;48.856;9.088;2023-03-01T10:58:39;17.13;;;13.23;;
42600;SDS011;28229;48.856;9.088;2023-03-01T11:03:42;17.00;;;13.60;;
42600;SDS011;28229;48.856;9.088;2023-03-01T11:08:47;16.57;;;13.70;;
42600;SDS011;28229;48.856;9.088;2023-03-01T11:13:50;18.53;;;14.60;;
42600;SDS011;28229;48.856;9.088;2023-03-01T11:16:24;19.30;;;14.10;;
42600;SDS011;28229;48.856;9.088;2023-03-01T11:18:56;17.17;;;14.27;;
42600;SDS011;28229;48.856;9.088;2023-03-01T11:21:24;16.90;;;14.10;;
42600;SDS011;28229;48.856;9.088;2023-03-01T11:23:53;17.90;;;14.83;;
42600;SDS011;28229;48.856;9.088;2023-03-01T11:26:19;17.33;;;14.13;;
42600;SDS011;28229;48.856;9.088;2023-03-01T11:28:46;17.63;;;14.17;;
42600;SDS011;28229;48.856;9.088;2023-03-01T11:31:17;16.23;;;14.23;;
42600;SDS011;28229;48.856;9.088;2023-03-01T11:33:50;15.73;;;13.57;;
42600;SDS011;28229;48.856;9.088;2023-03-01T11:36:26;15.53;;;12.87;;
42600;SDS011;28229;48.856;9.088;2023-03-01T11:39:02;15.23;;;12.87;;
42600;SDS011;28229;48.856;9.088;2023-03-01T11:41:32;17.60;;;14.20;;
42600;SDS011;28229;48.856;9.088;2023-03-01T11:44:03;14.50;;;12.37;;
42600;SDS011;28229;48.856;9.088;2023-03-01T11:46:45;18.17;;;14.10;;
42600;SDS011;28229;48.856;9.088;2023-03-01T11:57:59;17.70;;;14.30;;
42600;SDS011;28229;48.856;9.088;2023-03-01T12:15:18;16.43;;;13.10;;
42600;SDS011;28229;48.856;9.088;2023-03-01T12:20:49;14.97;;;13.00;;
42600;SDS011;28229;48.856;9.088;2023-03-01T12:26:23;14.73;;;13.03;;
42600;SDS011;28229;48.856;9.088;2023-03-01T12:29:14;16.13;;;13.20;;
42600;SDS011;28229;48.856;9.088;2023-03-01T12:32:06;16.40;;;12.87;;
42600;SDS011;28229;48.856;9.088;2023-03-01T12:37:36;18.00;;;13.60;;
42600;SDS011;28229;48.856;9.088;2023-03-01T12:40:38;15.80;;;13.10;;
42600;SDS011;28229;48.856;9.088;2023-03-01T12:49:00;16.87;;;13.23;;
42600;SDS011;28229;48.856;9.088;2023-03-01T12:51:34;16.33;;;13.43;;
42600;SDS011;28229;48.856;9.088;2023-03-01T12:54:16;15.23;;;12.53;;
42600;SDS011;28229;48.856;9.088;2023-03-01T12:56:48;16.17;;;12.57;;
42600;SDS011;28229;48.856;9.088;2023-03-01T12:59:27;14.47;;;12.83;;
42600;SDS011;28229;48.856;9.088;2023-03-01T13:02:22;16.90;;;13.10;;
42600;SDS011;28229;48.856;9.088;2023-03-01T13:07:55;16.67;;;13.27;;
42600;SDS011;28229;48.856;9.088;2023-03-01T13:10:46;17.27;;;13.47;;
42600;SDS011;28229;48.856;9.088;2023-03-01T13:13:25;17.27;;;13.63;;
42600;SDS011;28229;48.856;9.088;2023-03-01T13:15:53;16.43;;;12.87;;
42600;SDS011;28229;48.856;9.088;2023-03-01T13:20:46;17.80;;;13.43;;
42600;SDS011;28229;48.856;9.088;2023-03-01T13:28:41;16.53;;;13.73;;
42600;SDS011;28229;48.856;9.088;2023-03-01T13:36:09;14.90;;;12.73;;
42600;SDS011;28229;48.856;9.088;2023-03-01T13:38:55;16.77;;;13.73;;
42600;SDS011;28229;48.856;9.088;2023-03-01T13:46:43;17.20;;;12.83;;
42600;SDS011;28229;48.856;9.088;2023-03-01T13:49:14;17.90;;;13.63;;
42600;SDS011;28229;48.856;9.088;2023-03-01T13:51:47;16.20;;;13.60;;
42600;SDS011;28229;48.856;9.088;2023-03-01T13:54:30;19.27;;;13.77;;
42600;SDS011;28229;48.856;9.088;2023-03-01T13:56:59;17.63;;;13.23;;
42600;SDS011;28229;48.856;9.088;2023-03-01T13:59:27;16.33;;;13.40;;
42600;SDS011;28229;48.856;9.088;2023-03-01T14:01:56;16.87;;;14.07;;
42600;SDS011;28229;48.856;9.088;2023-03-01T14:04:25;14.83;;;12.27;;
42600;SDS011;28229;48.856;9.088;2023-03-01T14:09:48;16.87;;;13.00;;
42600;SDS011;28229;48.856;9.088;2023-03-01T14:17:44;19.07;;;14.00;;
42600;SDS011;28229;48.856;9.088;2023-03-01T14:20:21;16.20;;;13.70;;
42600;SDS011;28229;48.856;9.088;2023-03-01T14:22:52;16.60;;;13.30;;
42600;SDS011;28229;48.856;9.088;2023-03-01T14:28:04;16.13;;;13.73;;
42600;SDS011;28229;48.856;9.088;2023-03-01T14:30:41;15.37;;;12.70;;
42600;SDS011;28229;48.856;9.088;2023-03-01T14:33:18;17.33;;;13.07;;
42600;SDS011;28229;48.856;9.088;2023-03-01T14:35:52;16.83;;;13.83;;
42600;SDS011;28229;48.856;9.088;2023-03-01T14:38:28;15.80;;;13.73;;
42600;SDS011;28229;48.856;9.088;2023-03-01T14:41:22;16.90;;;14.37;;
42600;SDS011;28229;48.856;9.088;2023-03-01T14:44:03;20.10;;;14.07;;
42600;SDS011;28229;48.856;9.088;2023-03-01T14:46:36;18.77;;;15.30;;
42600;SDS011;28229;48.856;9.088;2023-03-01T14:51:35;17.70;;;14.53;;
42600;SDS011;28229;48.856;9.088;2023-03-01T14:54:03;17.53;;;14.13;;
42600;SDS011;28229;48.856;9.088;2023-03-01T14:56:49;19.33;;;14.70;;
42600;SDS011;28229;48.856;9.088;2023-03-01T14:59:21;18.57;;;14.90;;
42600;SDS011;28229;48.856;9.088;2023-03-01T15:01:50;18.00;;;14.03;;
42600;SDS011;28229;48.856;9.088;2023-03-01T15:04:17;21.47;;;15.67;;
42600;SDS011;28229;48.856;9.088;2023-03-01T15:06:45;19.90;;;14.70;;
42600;SDS011;28229;48.856;9.088;2023-03-01T15:09:13;20.47;;;14.77;;
42600;SDS011;28229;48.856;9.088;2023-03-01T15:11:42;23.00;;;14.97;;
42600;SDS011;28229;48.856;9.088;2023-03-01T15:19:58;19.20;;;14.90;;
42600;SDS011;28229;48.856;9.088;2023-03-01T15:22:25;21.83;;;16.10;;
42600;SDS011;28229;48.856;9.088;2023-03-01T15:24:52;19.20;;;14.20;;
42600;SDS011;28229;48.856;9.088;2023-03-01T15:27:29;19.17;;;14.20;;
42600;SDS011;28229;48.856;9.088;2023-03-01T15:29:59;19.57;;;14.43;;
42600;SDS011;28229;48.856;9.088;2023-03-01T15:32:29;19.07;;;14.63;;
42600;SDS011;28229;48.856;9.088;2023-03-01T15:35:01;20.10;;;14.67;;
42600;SDS011;28229;48.856;9.088;2023-03-01T15:37:48;20.53;;;13.80;;
42600;SDS011;28229;48.856;9.088;2023-03-01T15:40:25;20.73;;;14.30;;
42600;SDS011;28229;48.856;9.088;2023-03-01T15:42:59;18.70;;;14.57;;
42600;SDS011;28229;48.856;9.088;2023-03-01T15:45:27;20.17;;;15.13;;
42600;SDS011;28229;48.856;9.088;2023-03-01T15:47:56;18.83;;;13.90;;
42600;SDS011;28229;48.856;9.088;2023-03-01T15:50:28;18.63;;;14.10;;
42600;SDS011;28229;48.856;9.088;2023-03-01T15:52:58;18.53;;;14.67;;
42600;SDS011;28229;48.856;9.088;2023-03-01T15:55:27;20.60;;;14.70;;
42600;SDS011;28229;48.856;9.088;2023-03-01T15:58:15;20.23;;;14.63;;
42600;SDS011;28229;48.856;9.088;2023-03-01T16:00:44;18.07;;;14.07;;
42600;SDS011;28229;48.856;9.088;2023-03-01T16:03:11;20.97;;;14.27;;
42600;SDS011;28229;48.856;9.088;2023-03-01T16:05:38;20.10;;;14.53;;
42600;SDS011;28229;48.856;9.088;2023-03-01T16:08:05;21.00;;;14.40;;
42600;SDS011;28229;48.856;9.088;2023-03-01T16:10:33;19.10;;;13.67;;
42600;SDS011;28229;48.856;9.088;2023-03-01T16:12:59;20.33;;;14.07;;
42600;SDS011;28229;48.856;9.088;2023-03-01T16:15:27;20.63;;;14.80;;
42600;SDS011;28229;48.856;9.088;2023-03-01T16:17:55;23.53;;;14.97;;
42600;SDS011;28229;48.856;9.088;2023-03-01T16:20:24;23.37;;;15.47;;
42600;SDS011;28229;48.856;9.088;2023-03-01T16:22:51;20.30;;;14.73;;
42600;SDS011;28229;48.856;9.088;2023-03-01T16:25:18;19.73;;;13.70;;
42600;SDS011;28229;48.856;9.088;2023-03-01T16:27:46;17.33;;;13.10;;
42600;SDS011;28229;48.856;9.088;2023-03-01T16:30:15;19.20;;;13.40;;
42600;SDS011;28229;48.856;9.088;2023-03-01T16:32:43;18.70;;;13.20;;